sensor_id;sensor_type;location;lat;lon;timestamp;P1;durP1;ratioP1;P2;durP2;ratioP2
24457;SDS011;12629;50.860;5.714;2022-09-27T00:01:15;4.38;;;2.00;;
24457;SDS011;12629;50.860;5.714;2022-09-27T00:03:43;4.20;;;2.03;;
24457;SDS011;12629;50.860;5.714;2022-09-27T00:06:11;5.53;;;2.42;;
24457;SDS011;12629;50.860;5.714;2022-09-27T00:08:40;7.80;;;2.30;;
24457;SDS011;12629;50.860;5.714;2022-09-27T00:11:11;5.60;;;2.13;;
24457;SDS011;12629;50.860;5.714;2022-09-27T00:13:45;4.97;;;1.95;;
24457;SDS011;12629;50.860;5.714;2022-09-27T00:16:12;4.07;;;1.58;;
24457;SDS011;12629;50.860;5.714;2022-09-27T00:18:39;5.20;;;2.22;;
24457;SDS011;12629;50.860;5.714;2022-09-27T00:21:07;5.47;;;2.47;;
24457;SDS011;12629;50.860;5.714;2022-09-27T00:23:37;8.57;;;2.60;;
24457;SDS011;12629;50.860;5.714;2022-09-27T00:26:05;5.53;;;2.58;;
24457;SDS011;12629;50.860;5.714;2022-09-27T00:28:34;6.13;;;2.40;;
24457;SDS011;12629;50.860;5.714;2022-09-27T00:31:02;4.43;;;2.10;;
24457;SDS011;12629;50.860;5.714;2022-09-27T00:33:29;5.38;;;2.20;;
24457;SDS011;12629;50.860;5.714;2022-09-27T00:36:02;4.97;;;2.17;;
24457;SDS011;12629;50.860;5.714;2022-09-27T00:38:30;4.05;;;1.88;;
24457;SDS011;12629;50.860;5.714;2022-09-27T00:40:57;4.90;;;2.00;;
24457;SDS011;12629;50.860;5.714;2022-09-27T00:43:24;6.10;;;2.33;;
24457;SDS011;12629;50.860;5.714;2022-09-27T00:45:53;6.57;;;2.25;;
24457;SDS011;12629;50.860;5.714;2022-09-27T00:48:25;3.30;;;1.60;;
24457;SDS011;12629;50.860;5.714;2022-09-27T00:50:55;2.75;;;1.55;;
24457;SDS011;12629;50.860;5.714;2022-09-27T00:53:27;3.08;;;1.45;;
24457;SDS011;12629;50.860;5.714;2022-09-27T00:55:58;4.83;;;2.10;;
24457;SDS011;12629;50.860;5.714;2022-09-27T00:58:29;4.03;;;1.50;;
24457;SDS011;12629;50.860;5.714;2022-09-27T01:01:01;3.90;;;2.13;;
24457;SDS011;12629;50.860;5.714;2022-09-27T01:03:33;3.38;;;2.00;;
24457;SDS011;12629;50.860;5.714;2022-09-27T01:06:06;6.45;;;2.53;;
24457;SDS011;12629;50.860;5.714;2022-09-27T01:08:34;3.15;;;1.50;;
24457;SDS011;12629;50.860;5.714;2022-09-27T01:11:05;6.30;;;2.40;;
24457;SDS011;12629;50.860;5.714;2022-09-27T01:13:42;4.75;;;1.98;;
24457;SDS011;12629;50.860;5.714;2022-09-27T01:16:22;3.95;;;1.70;;
24457;SDS011;12629;50.860;5.714;2022-09-27T01:19:02;2.60;;;1.50;;
24457;SDS011;12629;50.860;5.714;2022-09-27T01:21:43;2.97;;;1.48;;
24457;SDS011;12629;50.860;5.714;2022-09-27T01:24:19;4.20;;;1.55;;
24457;SDS011;12629;50.860;5.714;2022-09-27T01:30:17;6.72;;;1.65;;
24457;SDS011;12629;50.860;5.714;2022-09-27T01:32:57;3.58;;;1.48;;
24457;SDS011;12629;50.860;5.714;2022-09-27T01:35:36;3.38;;;1.50;;
24457;SDS011;12629;50.860;5.714;2022-09-27T01:38:11;6.97;;;1.45;;
24457;SDS011;12629;50.860;5.714;2022-09-27T01:40:46;5.18;;;1.77;;
24457;SDS011;12629;50.860;5.714;2022-09-27T01:43:20;5.28;;;1.50;;
24457;SDS011;12629;50.860;5.714;2022-09-27T01:45:52;4.28;;;1.48;;
24457;SDS011;12629;50.860;5.714;2022-09-27T01:48:25;5.13;;;1.48;;
24457;SDS011;12629;50.860;5.714;2022-09-27T01:50:58;3.28;;;1.50;;
24457;SDS011;12629;50.860;5.714;2022-09-27T01:53:32;2.92;;;1.33;;
24457;SDS011;12629;50.860;5.714;2022-09-27T01:56:02;3.38;;;1.40;;
24457;SDS011;12629;50.860;5.714;2022-09-27T01:58:36;3.53;;;1.40;;
24457;SDS011;12629;50.860;5.714;2022-09-27T02:01:11;1.58;;;1.08;;
24457;SDS011;12629;50.860;5.714;2022-09-27T02:06:11;4.90;;;1.70;;
24457;SDS011;12629;50.860;5.714;2022-09-27T02:08:42;5.25;;;1.85;;
24457;SDS011;12629;50.860;5.714;2022-09-27T02:11:12;4.60;;;1.70;;
24457;SDS011;12629;50.860;5.714;2022-09-27T02:13:42;5.95;;;1.85;;
24457;SDS011;12629;50.860;5.714;2022-09-27T02:16:18;6.32;;;2.00;;
24457;SDS011;12629;50.860;5.714;2022-09-27T02:18:52;5.00;;;1.92;;
24457;SDS011;12629;50.860;5.714;2022-09-27T02:21:24;5.43;;;1.98;;
24457;SDS011;12629;50.860;5.714;2022-09-27T02:23:59;6.18;;;1.90;;
24457;SDS011;12629;50.860;5.714;2022-09-27T02:26:31;6.95;;;2.20;;
24457;SDS011;12629;50.860;5.714;2022-09-27T02:29:04;4.03;;;1.80;;
24457;SDS011;12629;50.860;5.714;2022-09-27T02:31:36;4.63;;;1.70;;
24457;SDS011;12629;50.860;5.714;2022-09-27T02:34:05;5.45;;;1.83;;
24457;SDS011;12629;50.860;5.714;2022-09-27T02:36:35;8.07;;;1.63;;
24457;SDS011;12629;50.860;5.714;2022-09-27T02:39:03;3.88;;;1.30;;
24457;SDS011;12629;50.860;5.714;2022-09-27T02:41:31;3.95;;;1.30;;
24457;SDS011;12629;50.860;5.714;2022-09-27T02:43:58;2.08;;;1.20;;
24457;SDS011;12629;50.860;5.714;2022-09-27T02:46:34;4.55;;;1.38;;
24457;SDS011;12629;50.860;5.714;2022-09-27T02:49:32;3.33;;;1.13;;
24457;SDS011;12629;50.860;5.714;2022-09-27T02:52:17;2.65;;;1.40;;
24457;SDS011;12629;50.860;5.714;2022-09-27T02:54:56;4.95;;;1.67;;
24457;SDS011;12629;50.860;5.714;2022-09-27T02:57:35;2.67;;;1.77;;
24457;SDS011;12629;50.860;5.714;2022-09-27T03:00:14;6.47;;;2.25;;
24457;SDS011;12629;50.860;5.714;2022-09-27T03:02:50;5.43;;;2.25;;
24457;SDS011;12629;50.860;5.714;2022-09-27T03:05:25;4.70;;;2.10;;
24457;SDS011;12629;50.860;5.714;2022-09-27T03:07:55;6.32;;;2.38;;
24457;SDS011;12629;50.860;5.714;2022-09-27T03:10:23;5.50;;;2.25;;
24457;SDS011;12629;50.860;5.714;2022-09-27T03:12:51;4.30;;;2.22;;
24457;SDS011;12629;50.860;5.714;2022-09-27T03:15:19;3.50;;;1.90;;
24457;SDS011;12629;50.860;5.714;2022-09-27T03:17:46;4.00;;;1.90;;
24457;SDS011;12629;50.860;5.714;2022-09-27T03:20:15;5.50;;;2.03;;
24457;SDS011;12629;50.860;5.714;2022-09-27T03:22:43;5.25;;;1.45;;
24457;SDS011;12629;50.860;5.714;2022-09-27T03:25:10;3.85;;;1.40;;
24457;SDS011;12629;50.860;5.714;2022-09-27T03:27:38;2.28;;;1.27;;
24457;SDS011;12629;50.860;5.714;2022-09-27T03:30:05;4.38;;;1.50;;
24457;SDS011;12629;50.860;5.714;2022-09-27T03:32:33;2.67;;;1.30;;
24457;SDS011;12629;50.860;5.714;2022-09-27T03:35:02;4.53;;;1.48;;
24457;SDS011;12629;50.860;5.714;2022-09-27T03:37:30;4.93;;;1.58;;
24457;SDS011;12629;50.860;5.714;2022-09-27T03:39:57;2.70;;;1.30;;
24457;SDS011;12629;50.860;5.714;2022-09-27T03:42:24;3.50;;;1.25;;
24457;SDS011;12629;50.860;5.714;2022-09-27T03:44:51;2.72;;;1.17;;
24457;SDS011;12629;50.860;5.714;2022-09-27T03:47:19;2.20;;;1.17;;
24457;SDS011;12629;50.860;5.714;2022-09-27T03:49:46;6.65;;;1.30;;
24457;SDS011;12629;50.860;5.714;2022-09-27T03:52:15;2.88;;;1.20;;
24457;SDS011;12629;50.860;5.714;2022-09-27T03:54:43;3.95;;;1.20;;
24457;SDS011;12629;50.860;5.714;2022-09-27T03:57:10;3.13;;;1.15;;
24457;SDS011;12629;50.860;5.714;2022-09-27T03:59:38;3.10;;;1.10;;
24457;SDS011;12629;50.860;5.714;2022-09-27T04:02:05;3.92;;;1.50;;
24457;SDS011;12629;50.860;5.714;2022-09-27T04:04:32;3.72;;;1.27;;
24457;SDS011;12629;50.860;5.714;2022-09-27T04:06:59;5.88;;;2.03;;
24457;SDS011;12629;50.860;5.714;2022-09-27T04:09:28;4.82;;;1.80;;
24457;SDS011;12629;50.860;5.714;2022-09-27T04:11:55;4.22;;;1.65;;
24457;SDS011;12629;50.860;5.714;2022-09-27T04:14:22;4.07;;;1.48;;
24457;SDS011;12629;50.860;5.714;2022-09-27T04:16:49;4.22;;;1.30;;
24457;SDS011;12629;50.860;5.714;2022-09-27T04:19:17;3.03;;;1.45;;
24457;SDS011;12629;50.860;5.714;2022-09-27T04:21:44;3.42;;;1.23;;
24457;SDS011;12629;50.860;5.714;2022-09-27T04:24:11;4.53;;;1.50;;
24457;SDS011;12629;50.860;5.714;2022-09-27T04:26:40;4.55;;;1.50;;
24457;SDS011;12629;50.860;5.714;2022-09-27T04:29:07;4.50;;;1.70;;
24457;SDS011;12629;50.860;5.714;2022-09-27T04:31:35;6.30;;;1.38;;
24457;SDS011;12629;50.860;5.714;2022-09-27T04:34:02;5.38;;;1.52;;
24457;SDS011;12629;50.860;5.714;2022-09-27T04:36:30;4.32;;;1.20;;
24457;SDS011;12629;50.860;5.714;2022-09-27T04:38:58;3.25;;;1.20;;
24457;SDS011;12629;50.860;5.714;2022-09-27T04:41:27;3.90;;;1.40;;
24457;SDS011;12629;50.860;5.714;2022-09-27T04:43:56;2.97;;;1.30;;
24457;SDS011;12629;50.860;5.714;2022-09-27T04:46:24;3.83;;;1.33;;
24457;SDS011;12629;50.860;5.714;2022-09-27T04:48:55;3.70;;;1.40;;
24457;SDS011;12629;50.860;5.714;2022-09-27T04:51:23;3.40;;;1.42;;
24457;SDS011;12629;50.860;5.714;2022-09-27T04:53:51;4.30;;;1.63;;
24457;SDS011;12629;50.860;5.714;2022-09-27T04:56:19;3.67;;;1.30;;
24457;SDS011;12629;50.860;5.714;2022-09-27T04:58:46;6.20;;;2.75;;
24457;SDS011;12629;50.860;5.714;2022-09-27T05:01:14;6.97;;;2.35;;
24457;SDS011;12629;50.860;5.714;2022-09-27T05:03:42;4.85;;;1.75;;
24457;SDS011;12629;50.860;5.714;2022-09-27T05:06:09;3.97;;;1.30;;
24457;SDS011;12629;50.860;5.714;2022-09-27T05:08:37;4.32;;;1.55;;
24457;SDS011;12629;50.860;5.714;2022-09-27T05:11:04;3.08;;;1.30;;
24457;SDS011;12629;50.860;5.714;2022-09-27T05:13:31;5.85;;;1.30;;
24457;SDS011;12629;50.860;5.714;2022-09-27T05:16:00;3.67;;;1.20;;
24457;SDS011;12629;50.860;5.714;2022-09-27T05:18:30;2.65;;;1.10;;
24457;SDS011;12629;50.860;5.714;2022-09-27T05:20:58;1.73;;;1.10;;
24457;SDS011;12629;50.860;5.714;2022-09-27T05:23:25;5.22;;;1.52;;
24457;SDS011;12629;50.860;5.714;2022-09-27T05:25:53;3.60;;;1.40;;
24457;SDS011;12629;50.860;5.714;2022-09-27T05:28:20;4.63;;;1.60;;
24457;SDS011;12629;50.860;5.714;2022-09-27T05:30:48;1.73;;;1.20;;
24457;SDS011;12629;50.860;5.714;2022-09-27T05:33:15;3.92;;;1.30;;
24457;SDS011;12629;50.860;5.714;2022-09-27T05:35:44;2.60;;;1.40;;
24457;SDS011;12629;50.860;5.714;2022-09-27T05:38:17;2.10;;;1.40;;
24457;SDS011;12629;50.860;5.714;2022-09-27T05:40:44;4.28;;;1.70;;
24457;SDS011;12629;50.860;5.714;2022-09-27T05:43:15;3.90;;;1.55;;
24457;SDS011;12629;50.860;5.714;2022-09-27T05:45:42;5.25;;;1.60;;
24457;SDS011;12629;50.860;5.714;2022-09-27T05:48:10;2.35;;;1.30;;
24457;SDS011;12629;50.860;5.714;2022-09-27T05:50:38;2.85;;;1.40;;
24457;SDS011;12629;50.860;5.714;2022-09-27T05:53:07;3.60;;;1.40;;
24457;SDS011;12629;50.860;5.714;2022-09-27T05:55:36;3.63;;;1.40;;
24457;SDS011;12629;50.860;5.714;2022-09-27T05:58:04;4.43;;;1.40;;
24457;SDS011;12629;50.860;5.714;2022-09-27T06:00:33;4.95;;;1.73;;
24457;SDS011;12629;50.860;5.714;2022-09-27T06:03:01;6.57;;;1.90;;
24457;SDS011;12629;50.860;5.714;2022-09-27T06:05:30;6.53;;;2.10;;
24457;SDS011;12629;50.860;5.714;2022-09-27T06:08:02;7.90;;;2.42;;
24457;SDS011;12629;50.860;5.714;2022-09-27T06:10:31;4.20;;;1.85;;
24457;SDS011;12629;50.860;5.714;2022-09-27T06:12:59;4.32;;;1.58;;
24457;SDS011;12629;50.860;5.714;2022-09-27T06:15:27;2.85;;;1.70;;
24457;SDS011;12629;50.860;5.714;2022-09-27T06:17:55;3.58;;;1.42;;
24457;SDS011;12629;50.860;5.714;2022-09-27T06:20:23;5.22;;;1.45;;
24457;SDS011;12629;50.860;5.714;2022-09-27T06:22:51;2.75;;;1.35;;
24457;SDS011;12629;50.860;5.714;2022-09-27T06:25:19;2.88;;;1.33;;
24457;SDS011;12629;50.860;5.714;2022-09-27T06:27:47;4.57;;;1.80;;
24457;SDS011;12629;50.860;5.714;2022-09-27T06:30:15;3.05;;;1.40;;
24457;SDS011;12629;50.860;5.714;2022-09-27T06:32:42;4.57;;;1.48;;
24457;SDS011;12629;50.860;5.714;2022-09-27T06:35:10;3.90;;;2.10;;
24457;SDS011;12629;50.860;5.714;2022-09-27T06:37:37;2.30;;;1.25;;
24457;SDS011;12629;50.860;5.714;2022-09-27T06:40:05;2.90;;;1.50;;
24457;SDS011;12629;50.860;5.714;2022-09-27T06:42:33;3.47;;;1.30;;
24457;SDS011;12629;50.860;5.714;2022-09-27T06:45:02;4.13;;;1.63;;
24457;SDS011;12629;50.860;5.714;2022-09-27T06:47:34;5.57;;;1.60;;
24457;SDS011;12629;50.860;5.714;2022-09-27T06:50:01;2.88;;;1.55;;
24457;SDS011;12629;50.860;5.714;2022-09-27T06:52:30;2.90;;;1.55;;
24457;SDS011;12629;50.860;5.714;2022-09-27T06:54:59;4.38;;;1.40;;
24457;SDS011;12629;50.860;5.714;2022-09-27T06:57:27;4.35;;;1.52;;
24457;SDS011;12629;50.860;5.714;2022-09-27T07:00:13;3.50;;;1.65;;
24457;SDS011;12629;50.860;5.714;2022-09-27T07:02:51;2.72;;;1.42;;
24457;SDS011;12629;50.860;5.714;2022-09-27T07:05:25;2.75;;;1.30;;
24457;SDS011;12629;50.860;5.714;2022-09-27T07:07:53;2.97;;;1.50;;
24457;SDS011;12629;50.860;5.714;2022-09-27T07:10:22;3.05;;;1.20;;
24457;SDS011;12629;50.860;5.714;2022-09-27T07:12:50;3.10;;;1.58;;
24457;SDS011;12629;50.860;5.714;2022-09-27T07:15:19;2.13;;;1.20;;
24457;SDS011;12629;50.860;5.714;2022-09-27T07:17:48;1.80;;;1.30;;
24457;SDS011;12629;50.860;5.714;2022-09-27T07:20:22;3.63;;;1.10;;
24457;SDS011;12629;50.860;5.714;2022-09-27T07:22:49;4.47;;;1.42;;
24457;SDS011;12629;50.860;5.714;2022-09-27T07:25:16;2.30;;;1.27;;
24457;SDS011;12629;50.860;5.714;2022-09-27T07:27:43;2.80;;;1.23;;
24457;SDS011;12629;50.860;5.714;2022-09-27T07:30:11;2.17;;;1.20;;
24457;SDS011;12629;50.860;5.714;2022-09-27T07:32:40;1.60;;;1.20;;
24457;SDS011;12629;50.860;5.714;2022-09-27T07:35:08;2.63;;;1.20;;
24457;SDS011;12629;50.860;5.714;2022-09-27T07:37:36;2.53;;;1.27;;
24457;SDS011;12629;50.860;5.714;2022-09-27T07:40:04;3.00;;;1.40;;
24457;SDS011;12629;50.860;5.714;2022-09-27T07:42:34;4.28;;;1.55;;
24457;SDS011;12629;50.860;5.714;2022-09-27T07:45:03;2.22;;;1.13;;
24457;SDS011;12629;50.860;5.714;2022-09-27T07:47:31;2.97;;;1.33;;
24457;SDS011;12629;50.860;5.714;2022-09-27T07:50:03;4.07;;;1.40;;
24457;SDS011;12629;50.860;5.714;2022-09-27T07:52:37;4.05;;;1.60;;
24457;SDS011;12629;50.860;5.714;2022-09-27T07:55:05;2.30;;;1.20;;
24457;SDS011;12629;50.860;5.714;2022-09-27T07:57:33;4.70;;;1.50;;
24457;SDS011;12629;50.860;5.714;2022-09-27T08:00:01;3.80;;;1.58;;
24457;SDS011;12629;50.860;5.714;2022-09-27T08:02:29;2.08;;;1.40;;
24457;SDS011;12629;50.860;5.714;2022-09-27T08:04:57;4.00;;;1.52;;
24457;SDS011;12629;50.860;5.714;2022-09-27T08:07:26;4.07;;;1.80;;
24457;SDS011;12629;50.860;5.714;2022-09-27T08:09:54;3.95;;;1.65;;
24457;SDS011;12629;50.860;5.714;2022-09-27T08:12:21;3.40;;;1.70;;
24457;SDS011;12629;50.860;5.714;2022-09-27T08:14:49;3.40;;;2.00;;
24457;SDS011;12629;50.860;5.714;2022-09-27T08:17:16;3.25;;;1.90;;
24457;SDS011;12629;50.860;5.714;2022-09-27T08:19:44;5.18;;;1.92;;
24457;SDS011;12629;50.860;5.714;2022-09-27T08:22:14;5.00;;;2.30;;
24457;SDS011;12629;50.860;5.714;2022-09-27T08:24:43;6.10;;;1.95;;
24457;SDS011;12629;50.860;5.714;2022-09-27T08:27:10;2.95;;;2.08;;
